createdAt,value
2023-05-20T00:00:23.860Z,17.00
2023-05-20T00:02:58.128Z,17.10
2023-05-20T00:05:27.884Z,17.00
2023-05-20T00:07:57.480Z,17.00
2023-05-20T00:10:27.191Z,17.10
2023-05-20T00:12:57.010Z,17.20
2023-05-20T00:15:26.721Z,17.10
2023-05-20T00:17:57.820Z,17.10
2023-05-20T00:20:27.361Z,17.30
2023-05-20T00:22:57.071Z,17.10
2023-05-20T00:25:26.895Z,17.20
2023-05-20T00:27:56.271Z,17.20
2023-05-20T00:30:26.109Z,17.20
2023-05-20T00:32:57.589Z,17.10
2023-05-20T00:35:27.372Z,17.10
2023-05-20T00:37:57.066Z,17.20
2023-05-20T00:40:26.978Z,17.10
2023-05-20T00:42:57.412Z,17.30
2023-05-20T00:45:27.424Z,17.30
2023-05-20T00:48:01.950Z,17.30
2023-05-20T00:50:31.758Z,17.30
2023-05-20T00:53:02.081Z,17.30
2023-05-20T00:55:31.653Z,17.40
2023-05-20T00:58:01.889Z,17.30
2023-05-20T01:00:31.836Z,17.20
2023-05-20T01:03:03.234Z,17.20
2023-05-20T01:05:33.357Z,17.30
2023-05-20T01:08:03.724Z,17.20
2023-05-20T01:10:35.792Z,17.20
2023-05-20T01:13:10.705Z,17.20
2023-05-20T01:15:42.284Z,17.30
2023-05-20T01:18:18.831Z,17.20
2023-05-20T01:20:52.331Z,17.20
2023-05-20T01:23:24.508Z,17.20
2023-05-20T01:25:54.312Z,17.30
2023-05-20T01:28:24.116Z,17.20
2023-05-20T01:30:58.461Z,17.20
2023-05-20T01:33:29.373Z,17.30
2023-05-20T01:36:01.140Z,17.30
2023-05-20T01:38:33.401Z,17.30
2023-05-20T01:41:07.103Z,17.40
2023-05-20T01:43:38.145Z,17.40
2023-05-20T01:46:08.865Z,17.30
2023-05-20T01:48:39.100Z,17.30
2023-05-20T01:51:08.815Z,17.30
2023-05-20T01:53:41.289Z,17.30
2023-05-20T01:56:11.301Z,17.30
2023-05-20T01:58:41.114Z,17.10
2023-05-20T02:01:12.826Z,17.20
2023-05-20T02:03:45.653Z,17.40
2023-05-20T02:06:15.208Z,17.40
2023-05-20T02:08:46.816Z,17.20
2023-05-20T02:11:16.538Z,17.20
2023-05-20T02:13:46.352Z,17.20
2023-05-20T02:16:16.302Z,17.10
2023-05-20T02:18:46.069Z,17.20
2023-05-20T02:21:20.078Z,17.10
2023-05-20T02:23:51.220Z,17.20
2023-05-20T02:26:21.543Z,17.20
2023-05-20T02:28:52.079Z,17.20
2023-05-20T02:31:24.546Z,17.20
2023-05-20T02:33:59.847Z,17.10
2023-05-20T02:36:32.888Z,17.10
2023-05-20T02:39:06.273Z,17.10
2023-05-20T02:41:36.081Z,17.10
2023-05-20T02:44:07.022Z,17.10
2023-05-20T02:46:37.071Z,17.10
2023-05-20T02:49:07.873Z,17.10
2023-05-20T02:51:38.601Z,17.20
2023-05-20T02:54:09.751Z,17.10
2023-05-20T02:56:39.783Z,17.10
2023-05-20T02:59:09.468Z,17.10
2023-05-20T03:01:40.845Z,17.20
2023-05-20T03:04:10.785Z,17.30
2023-05-20T03:06:45.169Z,17.20
2023-05-20T03:09:16.301Z,17.20
2023-05-20T03:11:46.209Z,17.30
2023-05-20T03:14:15.607Z,17.20
2023-05-20T03:16:45.529Z,17.20
2023-05-20T03:19:15.372Z,17.30
2023-05-20T03:21:47.000Z,17.20
2023-05-20T03:24:18.677Z,17.20
2023-05-20T03:26:50.409Z,17.30
2023-05-20T03:29:20.937Z,17.10
2023-05-20T03:31:50.903Z,17.10
2023-05-20T03:34:20.563Z,17.10
2023-05-20T03:36:53.235Z,17.30
2023-05-20T03:39:24.475Z,17.30
2023-05-20T03:41:54.085Z,17.40
2023-05-20T03:44:23.894Z,17.10
2023-05-20T03:46:53.790Z,17.20
2023-05-20T03:49:23.414Z,17.20
2023-05-20T03:51:54.255Z,17.10
2023-05-20T03:54:25.503Z,17.10
2023-05-20T03:56:56.956Z,17.30
2023-05-20T03:59:27.882Z,17.20
2023-05-20T04:01:58.758Z,17.20
2023-05-20T04:04:28.635Z,17.10
2023-05-20T04:06:58.247Z,17.10
2023-05-20T04:09:29.487Z,17.00
2023-05-20T04:11:59.308Z,17.10
2023-05-20T04:14:29.314Z,17.10
2023-05-20T04:16:58.910Z,17.20
2023-05-20T04:19:29.152Z,17.30
2023-05-20T04:21:59.099Z,17.20
2023-05-20T04:24:30.304Z,17.30
2023-05-20T04:27:00.118Z,17.50
2023-05-20T04:29:34.633Z,17.60
2023-05-20T04:32:04.789Z,17.50
2023-05-20T04:34:35.494Z,17.50
2023-05-20T04:37:05.198Z,17.60
2023-05-20T04:39:36.760Z,17.50
2023-05-20T04:42:07.082Z,17.80
2023-05-20T04:44:36.993Z,17.70
2023-05-20T04:47:08.244Z,17.70
2023-05-20T04:49:40.409Z,17.70
2023-05-20T04:52:10.234Z,17.80
2023-05-20T04:54:43.407Z,17.80
2023-05-20T04:57:13.119Z,17.90
2023-05-20T04:59:43.346Z,17.90
2023-05-20T05:02:13.666Z,18.00
2023-05-20T05:04:43.538Z,17.90
2023-05-20T05:07:13.489Z,18.00
2023-05-20T05:09:44.630Z,18.00
2023-05-20T05:12:14.446Z,18.10
2023-05-20T05:14:44.444Z,18.20
2023-05-20T05:17:14.071Z,18.10
2023-05-20T05:19:43.578Z,18.20
2023-05-20T05:22:13.282Z,18.30
2023-05-20T05:24:44.740Z,18.30
2023-05-20T05:27:15.260Z,18.40
2023-05-20T05:29:45.479Z,18.40
2023-05-20T05:32:15.809Z,18.50
2023-05-20T05:34:47.482Z,18.60
2023-05-20T05:37:17.380Z,18.60
2023-05-20T05:39:48.926Z,18.70
2023-05-20T05:42:18.827Z,18.80
2023-05-20T05:44:50.508Z,18.80
2023-05-20T05:47:20.546Z,18.80
2023-05-20T05:49:56.978Z,19.00
2023-05-20T05:52:30.277Z,19.00
2023-05-20T05:55:01.528Z,18.90
2023-05-20T05:57:34.605Z,18.90
2023-05-20T06:00:06.261Z,18.90
2023-05-20T06:02:47.838Z,18.90
2023-05-20T06:05:30.458Z,18.90
2023-05-20T06:08:00.546Z,19.00
2023-05-20T06:10:31.929Z,19.10
2023-05-20T06:13:02.576Z,19.20
2023-05-20T06:15:32.556Z,19.00
2023-05-20T06:18:02.451Z,19.00
2023-05-20T06:20:33.337Z,18.90
2023-05-20T06:23:03.034Z,18.80
2023-05-20T06:25:43.295Z,18.80
2023-05-20T06:28:13.623Z,18.70
2023-05-20T06:30:44.812Z,18.70
2023-05-20T06:33:14.892Z,18.80
2023-05-20T06:35:44.793Z,18.70
2023-05-20T06:38:14.768Z,18.70
2023-05-20T06:40:46.269Z,18.70
2023-05-20T06:43:17.941Z,18.70
2023-05-20T06:46:06.094Z,18.60
2023-05-20T06:48:42.326Z,18.60
2023-05-20T06:51:12.549Z,18.60
2023-05-20T06:53:42.766Z,18.60
2023-05-20T06:56:14.725Z,18.60
2023-05-20T06:58:44.330Z,18.70
2023-05-20T07:01:15.952Z,18.70
2023-05-20T07:03:47.053Z,18.70
2023-05-20T07:06:17.569Z,18.70
2023-05-20T07:08:47.794Z,18.60
2023-05-20T07:11:18.917Z,18.70
2023-05-20T07:13:48.735Z,18.80
2023-05-20T07:16:18.893Z,18.70
2023-05-20T07:18:55.426Z,18.70
2023-05-20T07:21:25.864Z,18.80
2023-05-20T07:24:16.444Z,18.80
2023-05-20T07:26:47.692Z,18.80
2023-05-20T07:29:17.915Z,18.90
2023-05-20T07:31:47.762Z,18.90
2023-05-20T07:34:19.174Z,18.90
2023-05-20T07:36:48.689Z,19.00
2023-05-20T07:39:21.564Z,19.00
2023-05-20T07:41:52.916Z,19.00
2023-05-20T07:44:23.755Z,18.90
2023-05-20T07:46:55.217Z,19.00
2023-05-20T07:49:28.593Z,18.90
2023-05-20T07:51:59.483Z,18.90
2023-05-20T07:54:30.579Z,18.70
2023-05-20T07:57:01.514Z,18.70
2023-05-20T07:59:32.556Z,18.60
2023-05-20T08:02:02.118Z,18.60
2023-05-20T08:04:32.299Z,18.70
2023-05-20T08:07:02.406Z,18.60
2023-05-20T08:09:45.622Z,18.80
2023-05-20T08:12:17.287Z,18.80
2023-05-20T08:14:47.087Z,18.90
2023-05-20T08:17:16.645Z,18.90
2023-05-20T08:19:46.308Z,18.90
2023-05-20T08:22:17.447Z,19.00
2023-05-20T08:24:49.107Z,19.00
2023-05-20T08:27:20.652Z,19.20
2023-05-20T08:29:50.774Z,19.20
2023-05-20T08:32:20.486Z,19.20
2023-05-20T08:34:51.122Z,19.20
2023-05-20T08:37:20.923Z,19.20
2023-05-20T08:39:51.142Z,19.30
2023-05-20T08:42:25.581Z,19.30
2023-05-20T08:44:57.728Z,19.30
2023-05-20T08:47:29.120Z,19.40
2023-05-20T08:49:59.205Z,19.50
2023-05-20T08:52:30.248Z,19.60
2023-05-20T08:55:01.285Z,19.50
2023-05-20T08:57:34.369Z,19.60
2023-05-20T09:00:09.921Z,19.60
2023-05-20T09:02:40.062Z,19.70
2023-05-20T09:05:12.789Z,19.80
2023-05-20T09:07:44.067Z,19.90
2023-05-20T09:10:13.887Z,20.10
2023-05-20T09:12:45.231Z,20.20
2023-05-20T09:15:14.848Z,20.30
2023-05-20T09:17:44.496Z,20.50
2023-05-20T09:20:15.379Z,20.60
2023-05-20T09:22:44.979Z,20.60
2023-05-20T09:25:14.905Z,20.80
2023-05-20T09:27:45.939Z,20.80
2023-05-20T09:30:16.388Z,21.00
2023-05-20T09:32:46.184Z,21.10
2023-05-20T09:35:16.704Z,21.20
2023-05-20T09:37:48.987Z,21.30
2023-05-20T09:40:21.656Z,21.20
2023-05-20T09:42:56.695Z,21.30
2023-05-20T09:45:26.497Z,21.40
2023-05-20T09:47:57.373Z,21.30
2023-05-20T09:50:27.961Z,21.40
2023-05-20T09:52:57.996Z,21.50
2023-05-20T09:55:28.214Z,21.40
2023-05-20T09:58:00.681Z,21.30
2023-05-20T10:00:30.417Z,21.40
2023-05-20T10:03:01.695Z,21.40
2023-05-20T10:05:35.084Z,21.40
2023-05-20T10:08:30.038Z,21.30
2023-05-20T10:11:08.760Z,21.20
2023-05-20T10:13:55.572Z,21.20
2023-05-20T10:16:35.001Z,21.10
2023-05-20T10:19:23.215Z,21.10
2023-05-20T10:22:03.003Z,20.90
2023-05-20T10:24:34.551Z,20.90
2023-05-20T10:27:06.920Z,21.00
2023-05-20T10:32:30.159Z,21.10
2023-05-20T10:35:05.602Z,21.20
2023-05-20T10:37:42.311Z,21.20
2023-05-20T10:40:14.781Z,21.10
2023-05-20T10:42:45.514Z,21.10
2023-05-20T10:45:28.132Z,21.10
2023-05-20T10:47:59.462Z,21.10
2023-05-20T10:50:30.727Z,21.10
2023-05-20T10:53:08.244Z,21.00
2023-05-20T10:55:49.922Z,21.00
2023-05-20T10:58:20.435Z,21.10
2023-05-20T11:00:56.117Z,21.10
2023-05-20T11:03:28.010Z,21.10
2023-05-20T11:05:58.169Z,21.00
2023-05-20T11:08:32.285Z,21.10
2023-05-20T11:11:02.596Z,21.10
2023-05-20T11:13:33.540Z,21.00
2023-05-20T11:16:05.325Z,21.00
2023-05-20T11:18:35.225Z,20.90
2023-05-20T11:21:05.343Z,20.90
2023-05-20T11:23:35.138Z,20.90
2023-05-20T11:26:06.181Z,20.90
2023-05-20T11:28:38.049Z,20.90
2023-05-20T11:31:09.800Z,21.00
2023-05-20T11:33:44.019Z,21.00
2023-05-20T11:36:26.897Z,21.00
2023-05-20T11:39:00.177Z,21.10
2023-05-20T11:41:30.658Z,21.20
2023-05-20T11:44:00.831Z,21.30
2023-05-20T11:46:32.244Z,21.40
2023-05-20T11:49:03.674Z,21.30
2023-05-20T11:51:33.601Z,21.30
2023-05-20T11:54:04.634Z,21.30
2023-05-20T11:56:35.977Z,21.30
2023-05-20T11:59:06.908Z,21.40
2023-05-20T12:01:41.442Z,21.50
2023-05-20T12:04:11.717Z,21.60
2023-05-20T12:06:43.310Z,21.50
2023-05-20T12:09:14.443Z,21.50
2023-05-20T12:11:47.250Z,21.50
2023-05-20T12:14:19.408Z,21.40
2023-05-20T12:16:51.775Z,21.30
2023-05-20T12:19:21.664Z,21.30
2023-05-20T12:21:55.501Z,21.20
2023-05-20T12:24:45.289Z,21.10
2023-05-20T12:27:16.622Z,21.20
2023-05-20T12:29:46.990Z,21.00
2023-05-20T12:32:19.644Z,20.90
2023-05-20T12:34:49.762Z,20.80
2023-05-20T12:37:20.508Z,20.80
2023-05-20T12:39:52.946Z,20.70
2023-05-20T12:42:22.656Z,20.60
2023-05-20T12:44:52.265Z,20.60
2023-05-20T12:47:24.686Z,20.60
2023-05-20T12:49:54.966Z,20.60
2023-05-20T12:52:24.887Z,20.50
2023-05-20T12:54:56.537Z,20.50
2023-05-20T12:57:26.460Z,20.50
2023-05-20T12:59:57.795Z,20.60
2023-05-20T13:02:30.515Z,20.60
2023-05-20T13:05:02.149Z,20.60
2023-05-20T13:07:34.095Z,20.40
2023-05-20T13:10:04.730Z,20.30
2023-05-20T13:12:34.546Z,20.30
2023-05-20T13:15:05.583Z,20.30
2023-05-20T13:17:37.570Z,20.10
2023-05-20T13:20:09.340Z,20.10
2023-05-20T13:22:40.450Z,20.30
2023-05-20T13:25:15.782Z,20.10
2023-05-20T13:27:48.769Z,19.80
2023-05-20T13:30:19.190Z,19.70
2023-05-20T13:32:51.185Z,19.50
2023-05-20T13:35:21.695Z,19.40
2023-05-20T13:37:52.420Z,19.60
2023-05-20T13:40:23.152Z,19.60
2023-05-20T13:42:52.759Z,19.90
2023-05-20T13:45:23.707Z,19.80
2023-05-20T13:47:55.723Z,19.90
2023-05-20T13:50:25.978Z,19.80
2023-05-20T13:53:00.299Z,20.00
2023-05-20T13:55:30.737Z,20.10
2023-05-20T13:58:01.179Z,20.30
2023-05-20T14:00:32.307Z,20.40
2023-05-20T14:03:05.227Z,20.40
2023-05-20T14:05:35.088Z,20.30
2023-05-20T14:08:05.008Z,20.40
2023-05-20T14:10:36.288Z,20.30
2023-05-20T14:13:07.463Z,20.20
2023-05-20T14:15:38.960Z,20.30
2023-05-20T14:18:11.384Z,20.20
2023-05-20T14:20:41.649Z,20.20
2023-05-20T14:23:12.473Z,20.10
2023-05-20T14:25:42.692Z,20.20
2023-05-20T14:28:14.048Z,20.20
2023-05-20T14:30:44.069Z,20.20
2023-05-20T14:33:16.055Z,20.40
2023-05-20T14:35:46.038Z,20.50
2023-05-20T14:38:16.277Z,20.40
2023-05-20T14:40:48.841Z,20.40
2023-05-20T14:43:21.540Z,20.40
2023-05-20T14:47:49.058Z,20.50
2023-05-20T14:50:18.698Z,20.40
2023-05-20T14:52:51.994Z,20.20
2023-05-20T14:55:22.436Z,20.30
2023-05-20T14:57:53.151Z,20.40
2023-05-20T15:00:25.240Z,20.50
2023-05-20T15:02:58.059Z,20.40
2023-05-20T15:05:27.746Z,20.50
2023-05-20T15:07:58.344Z,20.60
2023-05-20T15:10:28.250Z,20.70
2023-05-20T15:12:58.381Z,21.00
2023-05-20T15:15:30.435Z,20.80
2023-05-20T15:18:01.966Z,21.30
2023-05-20T15:20:34.160Z,21.30
2023-05-20T15:23:06.461Z,21.20
2023-05-20T15:25:36.471Z,21.40
2023-05-20T15:28:06.274Z,21.70
2023-05-20T15:30:36.072Z,22.00
2023-05-20T15:33:09.627Z,22.20
2023-05-20T15:35:43.067Z,22.20
2023-05-20T15:38:13.996Z,21.90
2023-05-20T15:40:44.026Z,21.80
2023-05-20T15:43:13.738Z,21.90
2023-05-20T15:45:43.358Z,21.70
2023-05-20T15:48:14.357Z,21.50
2023-05-20T15:50:44.185Z,21.40
2023-05-20T15:53:13.697Z,21.80
2023-05-20T15:55:44.883Z,21.70
2023-05-20T15:58:14.650Z,21.40
2023-05-20T16:00:44.060Z,21.70
2023-05-20T16:03:17.720Z,21.70
2023-05-20T16:05:49.514Z,21.50
2023-05-20T16:08:23.921Z,21.30
2023-05-20T16:10:53.546Z,21.50
2023-05-20T16:13:28.375Z,21.50
2023-05-20T16:16:01.634Z,21.60
2023-05-20T16:18:39.476Z,21.50
2023-05-20T16:21:09.181Z,21.70
2023-05-20T16:23:38.580Z,21.60
2023-05-20T16:26:08.289Z,21.80
2023-05-20T16:28:40.663Z,21.70
2023-05-20T16:31:10.891Z,21.70
2023-05-20T16:33:41.924Z,21.50
2023-05-20T16:36:13.983Z,21.50
2023-05-20T16:38:43.603Z,21.50
2023-05-20T16:41:16.104Z,21.80
2023-05-20T16:43:46.806Z,21.40
2023-05-20T16:46:16.527Z,21.60
2023-05-20T16:48:47.960Z,21.30
2023-05-20T16:51:17.558Z,21.40
2023-05-20T16:53:48.092Z,21.20
2023-05-20T16:56:17.910Z,21.10
2023-05-20T16:58:47.725Z,21.10
2023-05-20T17:01:17.890Z,21.40
2023-05-20T17:03:49.222Z,21.30
2023-05-20T17:06:19.316Z,21.20
2023-05-20T17:08:49.018Z,21.40
2023-05-20T17:11:18.717Z,21.40
2023-05-20T17:13:49.669Z,20.90
2023-05-20T17:16:20.526Z,21.10
2023-05-20T17:18:55.035Z,20.80
2023-05-20T17:21:24.831Z,21.10
2023-05-20T17:23:54.752Z,20.80
2023-05-20T17:26:24.450Z,20.90
2023-05-20T17:28:53.958Z,20.70
2023-05-20T17:31:23.681Z,20.80
2023-05-20T17:33:55.979Z,20.80
2023-05-20T17:36:27.188Z,20.80
2023-05-20T17:38:57.412Z,20.80
2023-05-20T17:41:28.448Z,20.70
2023-05-20T17:43:58.352Z,20.60
2023-05-20T17:46:29.775Z,20.90
2023-05-20T17:49:01.473Z,20.90
2023-05-20T17:51:32.396Z,20.60
2023-05-20T17:54:03.036Z,20.30
2023-05-20T17:56:33.357Z,20.40
2023-05-20T17:59:03.898Z,20.30
2023-05-20T18:01:33.938Z,20.10
2023-05-20T18:04:06.107Z,20.20
2023-05-20T18:06:36.609Z,20.30
2023-05-20T18:09:07.127Z,20.40
2023-05-20T18:11:37.258Z,20.30
2023-05-20T18:14:07.065Z,20.60
2023-05-20T18:16:41.254Z,20.20
2023-05-20T18:19:12.657Z,20.10
2023-05-20T18:21:42.856Z,20.20
2023-05-20T18:24:12.770Z,20.10
2023-05-20T18:26:42.487Z,20.40
2023-05-20T18:29:12.792Z,20.00
2023-05-20T18:31:43.759Z,19.90
2023-05-20T18:34:16.721Z,20.10
2023-05-20T18:36:46.638Z,20.10
2023-05-20T18:39:21.231Z,20.00
2023-05-20T18:41:51.985Z,19.80
2023-05-20T18:44:22.001Z,20.00
2023-05-20T18:46:52.026Z,20.10
2023-05-20T18:49:24.699Z,20.10
2023-05-20T18:51:54.614Z,19.80
2023-05-20T18:54:27.804Z,20.00
2023-05-20T18:56:58.267Z,20.20
2023-05-20T18:59:28.588Z,19.70
2023-05-20T19:01:58.576Z,19.50
2023-05-20T19:04:29.816Z,19.50
2023-05-20T19:06:59.726Z,19.50
2023-05-20T19:09:29.847Z,19.60
2023-05-20T19:11:59.654Z,19.90
2023-05-20T19:14:29.265Z,19.80
2023-05-20T19:16:59.150Z,19.50
2023-05-20T19:19:30.680Z,19.70
2023-05-20T19:22:01.361Z,19.50
2023-05-20T19:24:32.299Z,19.30
2023-05-20T19:27:02.110Z,19.50
2023-05-20T19:29:31.609Z,19.50
2023-05-20T19:32:01.542Z,19.50
2023-05-20T19:34:32.570Z,19.30
2023-05-20T19:37:02.286Z,19.30
2023-05-20T19:39:32.241Z,19.20
2023-05-20T19:42:02.018Z,19.30
2023-05-20T19:44:31.821Z,19.20
2023-05-20T19:47:01.745Z,19.20
2023-05-20T19:49:33.294Z,19.50
2023-05-20T19:52:02.995Z,19.50
2023-05-20T19:54:32.713Z,19.60
2023-05-20T19:57:02.407Z,19.50
2023-05-20T19:59:33.050Z,19.30
2023-05-20T20:02:03.419Z,19.30
2023-05-20T20:04:34.820Z,19.30
2023-05-20T20:07:04.534Z,19.20
2023-05-20T20:09:34.045Z,19.30
2023-05-20T20:12:04.564Z,19.20
2023-05-20T20:14:34.995Z,19.20
2023-05-20T20:17:04.704Z,19.00
2023-05-20T20:19:35.938Z,19.10
2023-05-20T20:22:05.872Z,18.80
2023-05-20T20:24:37.009Z,19.00
2023-05-20T20:27:07.643Z,18.80
2023-05-20T20:29:37.550Z,19.00
2023-05-20T20:32:08.109Z,19.20
2023-05-20T20:34:39.525Z,18.90
2023-05-20T20:37:09.032Z,19.20
2023-05-20T20:39:38.747Z,19.00
2023-05-20T20:42:08.552Z,19.00
2023-05-20T20:44:38.976Z,19.00
2023-05-20T20:47:10.371Z,18.90
2023-05-20T20:49:41.682Z,19.20
2023-05-20T20:52:11.903Z,19.20
2023-05-20T20:54:43.326Z,19.10
2023-05-20T20:57:14.393Z,19.20
2023-05-20T20:59:48.328Z,18.90
2023-05-20T21:02:18.115Z,19.10
2023-05-20T21:04:49.278Z,19.10
2023-05-20T21:07:19.675Z,19.10
2023-05-20T21:09:55.326Z,19.20
2023-05-20T21:12:25.033Z,19.30
2023-05-20T21:14:54.743Z,19.10
2023-05-20T21:17:24.386Z,19.00
2023-05-20T21:19:55.607Z,19.10
2023-05-20T21:22:25.203Z,19.20
2023-05-20T21:24:55.948Z,19.20
2023-05-20T21:27:25.647Z,19.20
2023-05-20T21:29:55.372Z,19.10
2023-05-20T21:32:24.997Z,19.20
2023-05-20T21:34:58.408Z,19.20
2023-05-20T21:37:28.273Z,19.20
2023-05-20T21:39:57.680Z,19.10
2023-05-20T21:42:27.403Z,19.10
2023-05-20T21:44:56.993Z,19.20
2023-05-20T21:47:26.610Z,19.10
2023-05-20T21:49:57.952Z,19.20
2023-05-20T21:52:27.755Z,19.10
2023-05-20T21:54:57.673Z,19.20
2023-05-20T21:57:27.179Z,19.20
2023-05-20T21:59:56.689Z,19.20
2023-05-20T22:02:26.259Z,19.20
2023-05-20T22:04:58.385Z,19.20
2023-05-20T22:07:28.064Z,19.10
2023-05-20T22:09:57.567Z,19.30
2023-05-20T22:12:28.107Z,19.10
2023-05-20T22:14:57.907Z,19.20
2023-05-20T22:17:27.639Z,19.10
2023-05-20T22:19:59.074Z,19.20
2023-05-20T22:22:29.084Z,19.20
2023-05-20T22:24:58.892Z,19.20
2023-05-20T22:27:28.397Z,19.10
2023-05-20T22:29:57.903Z,19.30
2023-05-20T22:32:27.544Z,19.20
2023-05-20T22:34:58.676Z,19.20
2023-05-20T22:37:29.291Z,19.10
2023-05-20T22:39:58.993Z,19.10
2023-05-20T22:42:28.706Z,19.00
2023-05-20T22:44:58.513Z,19.00
2023-05-20T22:47:28.467Z,19.00
2023-05-20T22:50:03.051Z,19.10
2023-05-20T22:52:33.107Z,19.00
2023-05-20T22:55:02.784Z,19.10
2023-05-20T22:57:32.604Z,19.00
2023-05-20T23:00:03.436Z,19.10
2023-05-20T23:02:32.992Z,19.10
2023-05-20T23:05:04.693Z,19.10
2023-05-20T23:07:34.505Z,19.00
2023-05-20T23:10:04.016Z,19.10
2023-05-20T23:12:33.515Z,19.00
2023-05-20T23:15:03.635Z,19.00
2023-05-20T23:17:33.352Z,19.10
2023-05-20T23:20:09.711Z,19.10
2023-05-20T23:22:40.041Z,19.00
2023-05-20T23:25:10.603Z,19.10
2023-05-20T23:27:41.916Z,19.10
2023-05-20T23:30:12.246Z,19.10
2023-05-20T23:32:42.171Z,19.10
2023-05-20T23:35:13.835Z,19.10
2023-05-20T23:37:43.623Z,19.10
2023-05-20T23:40:13.636Z,19.10
2023-05-20T23:42:43.335Z,19.10
2023-05-20T23:45:13.966Z,19.20
2023-05-20T23:47:44.016Z,19.30
2023-05-20T23:50:15.334Z,19.30
2023-05-20T23:52:45.043Z,19.30
2023-05-20T23:55:14.754Z,19.20
2023-05-20T23:57:44.669Z,19.30
